• Join FlightAware (Why Join?)
  • Login
  • US Flag 
08:36PM EDT


 

Airport Tracker/Info


-or-


 

Live Flight TrackerFlight Track Log ✈ SKW6538 ✈ 06-May-2013 ✈ KDEN - KIDA

Flight Track Log - Related Links

Times and Time Zones

All times are in EDT time to prevent confusion due to time zone crossing. See the SKW6538 flight status page for this flight to view local times or setup timezone preferences in your user account.

Time Position Orientation Groundspeed Altitude Reporting Facility
EDT Latitude Longitude Course Direction KTS MPH feet Rate Location/Type
11:58PM 39.8833 -104.6167 346° North 186 214 6,000  Level Denver TRACON
11:59PM 39.8833 -104.5500 90° East 202 232 7,800 1,800 Climbing Denver TRACON
12:00AM 39.9167 -104.4833 57° Northeast 253 291 9,600 1,680 Climbing Denver TRACON
12:01AM 40.1892 -104.7784 347° North  Level FlightAware Approximate
12:01AM 39.9833 -104.5000 349° North 298 343 11,000  Level Denver TRACON
12:02AM 40.3030 -104.8126 347° North  Level FlightAware Approximate
12:03AM 40.4164 -104.8499 346° North  Level FlightAware Approximate
12:03AM 40.1881 -104.5836 343° North 345 397 15,300  Level Denver Center
12:04AM 40.2892 -104.6286 341° North 357 411 17,100 1,680 Climbing Denver Center
12:05AM 40.3867 -104.6717 341° North 371 427 18,800 1,560 Climbing Denver Center
12:06AM 40.4822 -104.7158 341° North 365 420 20,600 1,500 Climbing Denver Center
12:07AM 40.6036 -104.7692 342° North 373 429 22,300 1,320 Climbing Denver Center
12:08AM 40.7031 -104.8161 340° North 376 433 23,400 1,080 Climbing Denver Center
12:09AM 40.8022 -104.8553 343° North 369 425 24,600 1,080 Climbing Denver Center
12:10AM 40.9033 -104.9061 339° North 383 441 25,700 960 Climbing Denver Center
12:11AM 41.0058 -104.9583 339° North 390 449 26,600 900 Climbing Denver Center
12:12AM 41.1119 -105.0286 333° Northwest 394 453 27,600 840 Climbing Denver Center
12:13AM 41.1631 -105.1472 300° West 386 444 28,400 780 Climbing Denver Center
12:14AM 41.2192 -105.2936 297° West 394 453 29,300 720 Climbing Denver Center
12:15AM 41.2664 -105.4186 297° West 395 455 29,900 540 Climbing Denver Center
12:16AM 41.3144 -105.5456 297° West 399 459 30,400 540 Climbing Denver Center
12:17AM 41.3722 -105.6964 297° West 408 470 31,000 540 Climbing Denver Center
12:18AM 41.4203 -105.8264 296° West 409 471 31,500 420 Climbing Denver Center
12:19AM 41.4694 -105.9583 296° West 413 475 31,900 240 Climbing Denver Center
12:20AM 41.5281 -106.1147 297° West 419 482 32,000  Climbing Denver Center
12:21AM 41.5783 -106.2483 297° West 421 484 32,000  Level Denver Center
12:22AM 41.6253 -106.3794 296° West 413 475 32,000  Level Denver Center
12:23AM 41.6664 -106.4875 297° West 409 471 32,000  Level Denver Center
12:25AM 41.7311 -106.6661 296° West 407 468 32,000  Level Denver Center
12:26AM 41.7714 -106.7747 296° West 408 470 32,000  Level Denver Center
12:27AM 41.8322 -106.9486 295° West 405 466 32,000  Level Denver Center
12:28AM 41.8814 -107.0803 297° West 409 471 32,000  Level Denver Center
12:29AM 41.9283 -107.2139 295° West 413 475 32,000  Level Denver Center
12:30AM 41.9839 -107.3667 296° West 417 480 32,000  Level Denver Center
12:31AM 42.0328 -107.5047 296° West 418 481 32,000  Level Denver Center
12:32AM 42.0867 -107.6614 295° West 416 479 32,000  Level Denver Center
12:32AM 42.1097 -107.7294 295° West 420 483 32,000  Level Salt Lake Center
12:33AM 42.1656 -107.8875 296° West 424 488 32,000  Level Salt Lake Center
12:34AM 42.2119 -108.0211 295° West 418 481 32,000  Level Salt Lake Center
12:35AM 42.2669 -108.1794 295° West 418 481 32,000  Level Salt Lake Center
12:36AM 42.3139 -108.3175 295° West 422 486 32,000  Level Salt Lake Center
12:37AM 42.3611 -108.4553 295° West 423 487 32,000  Level Salt Lake Center
12:38AM 42.4158 -108.6172 295° West 426 490 32,000  Level Salt Lake Center
12:39AM 42.4611 -108.7539 294° West 420 483 32,000  Level Salt Lake Center
12:40AM 42.5156 -108.9156 295° West 423 487 32,000  Level Salt Lake Center
12:41AM 42.5625 -109.0539 295° West 424 488 32,000  Level Salt Lake Center
12:42AM 42.6078 -109.1917 294° West 420 483 32,000  Level Salt Lake Center
12:43AM 42.6608 -109.3528 294° West 420 483 32,000  Level Salt Lake Center
12:44AM 42.7064 -109.4917 294° West 422 486 32,000  Level Salt Lake Center
12:45AM 42.7522 -109.6319 294° West 425 489 32,000  Level Salt Lake Center
12:46AM 42.8061 -109.7925 295° West 422 486 32,000  Level Salt Lake Center
12:48AM 42.8494 -109.9306 293° West 422 486 32,000  Level Salt Lake Center
12:49AM 42.9028 -110.0950 294° West 424 488 32,000  Level Salt Lake Center
12:50AM 42.9486 -110.2364 294° West 422 486 32,000 -240 Level Salt Lake Center
12:51AM 42.9925 -110.3778 293° West 425 489 31,600 -1,920 Descending Salt Lake Center
12:52AM 43.0450 -110.5436 293° West 426 490 28,100 -3,120 Descending Salt Lake Center
12:53AM 43.0894 -110.6819 294° West 420 483 25,300 -2,700 Descending Salt Lake Center
12:54AM 43.1319 -110.8167 293° West 408 470 22,700 -2,640 Descending Salt Lake Center
12:55AM 43.1731 -110.9489 293° West 393 452 20,000 -2,520 Descending Salt Lake Center
12:56AM 43.2142 -111.0814 293° West 380 437 17,700 -2,100 Descending Salt Lake Center
12:57AM 43.2561 -111.2164 293° West 382 440 15,800 -2,160 Descending Salt Lake Center
12:58AM 43.3044 -111.3733 293° West 384 442 13,400 -1,380 Descending Salt Lake Center
12:59AM 43.3428 -111.4989 293° West 380 437 13,000 -240 Descending Salt Lake Center
01:00AM 43.3761 -111.6133 292° West 364 419 13,000 -300 Level Salt Lake Center
01:01AM 43.4108 -111.7164 295° West 295 339 12,400 -840 Descending Salt Lake Center
01:02AM 43.4647 -111.7622 328° Northwest 245 282 11,400 -1,200 Descending Salt Lake Center
01:03AM 43.5211 -111.8131 327° Northwest 246 283 10,000 -1,500 Descending Salt Lake Center
01:04AM 43.5833 -111.8733 325° Northwest 248 285 8,400 -1,380 Descending Salt Lake Center
01:05AM 43.6097 -111.9339 301° West 218 251 7,200 -960 Descending Salt Lake Center
01:06AM 43.5933 -111.9925 249° West 192 221 6,500 -720 Descending Salt Lake Center